sensor_id;sensor_type;location;lat;lon;timestamp;pressure;altitude;pressure_sealevel;temperature;humidity
36828;BME280;22766;48.042;11.192;2023-05-23T00:00:13;94780.56;;;14.10;100.00
36828;BME280;22766;48.042;11.192;2023-05-23T00:02:42;94775.28;;;14.03;100.00
36828;BME280;22766;48.042;11.192;2023-05-23T00:05:09;94780.72;;;14.08;100.00
36828;BME280;22766;48.042;11.192;2023-05-23T00:07:35;94779.41;;;14.13;100.00
36828;BME280;22766;48.042;11.192;2023-05-23T00:10:03;94774.84;;;14.15;100.00
36828;BME280;22766;48.042;11.192;2023-05-23T00:12:29;94778.69;;;14.19;100.00
36828;BME280;22766;48.042;11.192;2023-05-23T00:14:56;94783.13;;;14.25;100.00
36828;BME280;22766;48.042;11.192;2023-05-23T00:17:23;94782.97;;;14.26;100.00
36828;BME280;22766;48.042;11.192;2023-05-23T00:19:51;94793.63;;;14.17;100.00
36828;BME280;22766;48.042;11.192;2023-05-23T00:22:18;94792.28;;;14.06;100.00
36828;BME280;22766;48.042;11.192;2023-05-23T00:24:45;94780.09;;;14.06;100.00
36828;BME280;22766;48.042;11.192;2023-05-23T00:27:12;94786.72;;;13.94;100.00
36828;BME280;22766;48.042;11.192;2023-05-23T00:29:38;94789.94;;;13.82;100.00
36828;BME280;22766;48.042;11.192;2023-05-23T00:32:05;94790.94;;;13.81;100.00
36828;BME280;22766;48.042;11.192;2023-05-23T00:34:32;94784.28;;;13.78;100.00
36828;BME280;22766;48.042;11.192;2023-05-23T00:36:59;94786.06;;;13.78;100.00
36828;BME280;22766;48.042;11.192;2023-05-23T00:39:27;94785.09;;;13.79;100.00
36828;BME280;22766;48.042;11.192;2023-05-23T00:41:54;94788.16;;;13.82;100.00
36828;BME280;22766;48.042;11.192;2023-05-23T00:44:21;94780.69;;;13.79;100.00
36828;BME280;22766;48.042;11.192;2023-05-23T00:46:51;94784.91;;;13.80;100.00
36828;BME280;22766;48.042;11.192;2023-05-23T00:49:19;94786.50;;;13.81;100.00
36828;BME280;22766;48.042;11.192;2023-05-23T00:51:46;94786.19;;;13.84;100.00
36828;BME280;22766;48.042;11.192;2023-05-23T00:54:17;94788.66;;;13.78;100.00
36828;BME280;22766;48.042;11.192;2023-05-23T00:56:46;94788.56;;;13.71;100.00
36828;BME280;22766;48.042;11.192;2023-05-23T00:59:14;94788.22;;;13.74;100.00
36828;BME280;22766;48.042;11.192;2023-05-23T01:01:42;94786.13;;;13.70;100.00
36828;BME280;22766;48.042;11.192;2023-05-23T01:04:13;94784.72;;;13.67;100.00
36828;BME280;22766;48.042;11.192;2023-05-23T01:06:42;94783.91;;;13.67;100.00
36828;BME280;22766;48.042;11.192;2023-05-23T01:09:14;94791.25;;;13.63;100.00
36828;BME280;22766;48.042;11.192;2023-05-23T01:14:21;94793.53;;;13.58;100.00
36828;BME280;22766;48.042;11.192;2023-05-23T01:16:54;94799.91;;;13.56;100.00
36828;BME280;22766;48.042;11.192;2023-05-23T01:22:53;94788.94;;;13.46;100.00
36828;BME280;22766;48.042;11.192;2023-05-23T01:28:28;94796.16;;;13.36;100.00
36828;BME280;22766;48.042;11.192;2023-05-23T01:30:57;94797.31;;;13.33;100.00
36828;BME280;22766;48.042;11.192;2023-05-23T01:33:27;94799.28;;;13.31;100.00
36828;BME280;22766;48.042;11.192;2023-05-23T01:35:57;94801.41;;;13.28;100.00
36828;BME280;22766;48.042;11.192;2023-05-23T01:38:27;94798.88;;;13.20;100.00
36828;BME280;22766;48.042;11.192;2023-05-23T01:40:53;94801.75;;;13.25;100.00
36828;BME280;22766;48.042;11.192;2023-05-23T01:43:21;94806.13;;;13.24;100.00
36828;BME280;22766;48.042;11.192;2023-05-23T01:45:54;94811.31;;;13.24;100.00
36828;BME280;22766;48.042;11.192;2023-05-23T01:48:23;94810.53;;;13.24;100.00
36828;BME280;22766;48.042;11.192;2023-05-23T01:50:52;94816.63;;;13.31;100.00
36828;BME280;22766;48.042;11.192;2023-05-23T01:53:21;94817.25;;;13.33;100.00
36828;BME280;22766;48.042;11.192;2023-05-23T01:55:49;94818.84;;;13.34;100.00
36828;BME280;22766;48.042;11.192;2023-05-23T01:58:16;94821.28;;;13.35;100.00
36828;BME280;22766;48.042;11.192;2023-05-23T02:00:44;94822.72;;;13.38;100.00
36828;BME280;22766;48.042;11.192;2023-05-23T02:03:11;94824.66;;;13.36;100.00
36828;BME280;22766;48.042;11.192;2023-05-23T02:05:38;94828.72;;;13.38;100.00
36828;BME280;22766;48.042;11.192;2023-05-23T02:08:06;94835.81;;;13.22;100.00
36828;BME280;22766;48.042;11.192;2023-05-23T02:10:32;94833.63;;;13.10;100.00
36828;BME280;22766;48.042;11.192;2023-05-23T02:12:59;94846.25;;;13.05;100.00
36828;BME280;22766;48.042;11.192;2023-05-23T02:15:27;94839.28;;;13.06;100.00
36828;BME280;22766;48.042;11.192;2023-05-23T02:17:54;94840.75;;;13.08;100.00
36828;BME280;22766;48.042;11.192;2023-05-23T02:20:21;94836.19;;;13.10;100.00
36828;BME280;22766;48.042;11.192;2023-05-23T02:22:47;94837.31;;;13.16;100.00
36828;BME280;22766;48.042;11.192;2023-05-23T02:25:14;94837.84;;;13.26;100.00
36828;BME280;22766;48.042;11.192;2023-05-23T02:27:41;94844.03;;;13.25;100.00
36828;BME280;22766;48.042;11.192;2023-05-23T02:30:08;94846.63;;;13.25;100.00
36828;BME280;22766;48.042;11.192;2023-05-23T02:32:35;94840.19;;;13.21;100.00
36828;BME280;22766;48.042;11.192;2023-05-23T02:35:04;94841.50;;;13.17;100.00
36828;BME280;22766;48.042;11.192;2023-05-23T02:37:31;94843.28;;;13.17;100.00
36828;BME280;22766;48.042;11.192;2023-05-23T02:39:58;94848.63;;;13.15;100.00
36828;BME280;22766;48.042;11.192;2023-05-23T02:42:25;94845.53;;;13.20;100.00
36828;BME280;22766;48.042;11.192;2023-05-23T02:44:52;94851.19;;;13.23;100.00
36828;BME280;22766;48.042;11.192;2023-05-23T02:47:19;94853.31;;;13.20;100.00
36828;BME280;22766;48.042;11.192;2023-05-23T02:49:47;94844.09;;;13.17;100.00
36828;BME280;22766;48.042;11.192;2023-05-23T02:52:14;94847.66;;;13.16;100.00
36828;BME280;22766;48.042;11.192;2023-05-23T02:54:41;94840.69;;;13.17;100.00
36828;BME280;22766;48.042;11.192;2023-05-23T02:57:08;94848.13;;;13.20;100.00
36828;BME280;22766;48.042;11.192;2023-05-23T02:59:38;94845.81;;;13.25;100.00
36828;BME280;22766;48.042;11.192;2023-05-23T03:02:04;94852.72;;;13.32;100.00
36828;BME280;22766;48.042;11.192;2023-05-23T03:04:31;94849.19;;;13.33;100.00
36828;BME280;22766;48.042;11.192;2023-05-23T03:06:58;94850.44;;;13.37;100.00
36828;BME280;22766;48.042;11.192;2023-05-23T03:09:25;94844.00;;;13.33;100.00
36828;BME280;22766;48.042;11.192;2023-05-23T03:11:52;94846.91;;;13.30;100.00
36828;BME280;22766;48.042;11.192;2023-05-23T03:14:19;94853.41;;;13.26;100.00
36828;BME280;22766;48.042;11.192;2023-05-23T03:16:47;94852.78;;;13.24;100.00
36828;BME280;22766;48.042;11.192;2023-05-23T03:19:14;94851.34;;;13.22;100.00
36828;BME280;22766;48.042;11.192;2023-05-23T03:21:41;94847.94;;;13.21;100.00
36828;BME280;22766;48.042;11.192;2023-05-23T03:24:09;94853.41;;;13.26;100.00
36828;BME280;22766;48.042;11.192;2023-05-23T03:26:36;94855.03;;;13.27;100.00
36828;BME280;22766;48.042;11.192;2023-05-23T03:29:02;94848.41;;;13.25;100.00
36828;BME280;22766;48.042;11.192;2023-05-23T03:31:29;94848.13;;;13.20;100.00
36828;BME280;22766;48.042;11.192;2023-05-23T03:33:56;94851.69;;;13.19;100.00
36828;BME280;22766;48.042;11.192;2023-05-23T03:36:23;94852.50;;;13.19;100.00
36828;BME280;22766;48.042;11.192;2023-05-23T03:38:51;94850.25;;;13.16;100.00
36828;BME280;22766;48.042;11.192;2023-05-23T03:41:18;94848.97;;;13.12;100.00
36828;BME280;22766;48.042;11.192;2023-05-23T03:43:45;94852.22;;;13.14;100.00
36828;BME280;22766;48.042;11.192;2023-05-23T03:46:12;94856.88;;;13.19;100.00
36828;BME280;22766;48.042;11.192;2023-05-23T03:48:40;94851.53;;;13.20;100.00
36828;BME280;22766;48.042;11.192;2023-05-23T03:51:07;94854.63;;;13.16;100.00
36828;BME280;22766;48.042;11.192;2023-05-23T03:53:35;94850.59;;;13.13;100.00
36828;BME280;22766;48.042;11.192;2023-05-23T03:56:03;94856.41;;;13.15;100.00
36828;BME280;22766;48.042;11.192;2023-05-23T03:58:30;94858.69;;;13.18;100.00
36828;BME280;22766;48.042;11.192;2023-05-23T04:01:01;94861.28;;;13.18;100.00
36828;BME280;22766;48.042;11.192;2023-05-23T04:03:29;94859.31;;;13.20;100.00
36828;BME280;22766;48.042;11.192;2023-05-23T04:05:59;94867.88;;;13.21;100.00
36828;BME280;22766;48.042;11.192;2023-05-23T04:08:26;94869.31;;;13.23;100.00
36828;BME280;22766;48.042;11.192;2023-05-23T04:10:55;94875.78;;;13.27;100.00
36828;BME280;22766;48.042;11.192;2023-05-23T04:13:24;94877.25;;;13.30;100.00
36828;BME280;22766;48.042;11.192;2023-05-23T04:15:52;94875.25;;;13.32;100.00
36828;BME280;22766;48.042;11.192;2023-05-23T04:18:22;94885.13;;;13.36;100.00
36828;BME280;22766;48.042;11.192;2023-05-23T04:20:49;94881.16;;;13.48;100.00
36828;BME280;22766;48.042;11.192;2023-05-23T04:23:16;94883.34;;;13.59;100.00
36828;BME280;22766;48.042;11.192;2023-05-23T04:25:46;94883.63;;;13.64;100.00
36828;BME280;22766;48.042;11.192;2023-05-23T04:28:20;94884.22;;;13.74;100.00
36828;BME280;22766;48.042;11.192;2023-05-23T04:30:47;94882.84;;;13.86;100.00
36828;BME280;22766;48.042;11.192;2023-05-23T04:33:20;94881.97;;;13.94;100.00
36828;BME280;22766;48.042;11.192;2023-05-23T04:35:47;94885.81;;;13.98;100.00
36828;BME280;22766;48.042;11.192;2023-05-23T04:38:14;94886.53;;;14.06;100.00
36828;BME280;22766;48.042;11.192;2023-05-23T04:40:43;94877.88;;;14.14;100.00
36828;BME280;22766;48.042;11.192;2023-05-23T04:43:20;94877.13;;;14.28;100.00
36828;BME280;22766;48.042;11.192;2023-05-23T04:45:52;94877.84;;;14.37;100.00
36828;BME280;22766;48.042;11.192;2023-05-23T04:48:33;94877.50;;;14.40;100.00
36828;BME280;22766;48.042;11.192;2023-05-23T04:51:02;94889.34;;;14.57;100.00
36828;BME280;22766;48.042;11.192;2023-05-23T04:53:36;94893.34;;;14.59;100.00
36828;BME280;22766;48.042;11.192;2023-05-23T04:56:03;94898.53;;;14.59;100.00
36828;BME280;22766;48.042;11.192;2023-05-23T04:58:30;94886.09;;;14.69;100.00
36828;BME280;22766;48.042;11.192;2023-05-23T05:01:00;94896.41;;;14.77;100.00
36828;BME280;22766;48.042;11.192;2023-05-23T05:03:27;94892.91;;;14.85;100.00
36828;BME280;22766;48.042;11.192;2023-05-23T05:05:55;94889.66;;;14.97;100.00
36828;BME280;22766;48.042;11.192;2023-05-23T05:08:22;94894.66;;;15.14;100.00
36828;BME280;22766;48.042;11.192;2023-05-23T05:10:49;94890.72;;;15.18;100.00
36828;BME280;22766;48.042;11.192;2023-05-23T05:13:18;94894.91;;;15.19;100.00
36828;BME280;22766;48.042;11.192;2023-05-23T05:15:48;94884.50;;;15.19;100.00
36828;BME280;22766;48.042;11.192;2023-05-23T05:18:15;94894.91;;;15.19;100.00
36828;BME280;22766;48.042;11.192;2023-05-23T05:20:43;94895.34;;;15.22;100.00
36828;BME280;22766;48.042;11.192;2023-05-23T05:23:10;94897.97;;;15.58;100.00
36828;BME280;22766;48.042;11.192;2023-05-23T05:25:37;94895.69;;;15.69;100.00
36828;BME280;22766;48.042;11.192;2023-05-23T05:28:04;94896.19;;;15.58;100.00
36828;BME280;22766;48.042;11.192;2023-05-23T05:30:36;94892.75;;;15.58;100.00
36828;BME280;22766;48.042;11.192;2023-05-23T05:33:04;94893.38;;;15.60;100.00
36828;BME280;22766;48.042;11.192;2023-05-23T05:35:34;94894.13;;;15.54;100.00
36828;BME280;22766;48.042;11.192;2023-05-23T05:38:04;94896.56;;;15.55;100.00
36828;BME280;22766;48.042;11.192;2023-05-23T05:40:32;94897.44;;;15.62;100.00
36828;BME280;22766;48.042;11.192;2023-05-23T05:43:00;94893.09;;;15.69;100.00
36828;BME280;22766;48.042;11.192;2023-05-23T05:45:26;94889.94;;;15.74;100.00
36828;BME280;22766;48.042;11.192;2023-05-23T05:47:53;94895.03;;;15.82;100.00
36828;BME280;22766;48.042;11.192;2023-05-23T05:50:22;94901.59;;;15.99;100.00
36828;BME280;22766;48.042;11.192;2023-05-23T05:52:49;94897.84;;;16.36;100.00
36828;BME280;22766;48.042;11.192;2023-05-23T05:55:16;94904.41;;;16.25;100.00
36828;BME280;22766;48.042;11.192;2023-05-23T05:57:49;94908.75;;;16.18;100.00
36828;BME280;22766;48.042;11.192;2023-05-23T06:00:16;94906.94;;;16.19;100.00
36828;BME280;22766;48.042;11.192;2023-05-23T06:02:45;94910.44;;;16.26;100.00
36828;BME280;22766;48.042;11.192;2023-05-23T06:05:18;94902.84;;;16.31;100.00
36828;BME280;22766;48.042;11.192;2023-05-23T06:07:47;94908.25;;;16.29;100.00
36828;BME280;22766;48.042;11.192;2023-05-23T06:10:15;94908.47;;;16.34;100.00
36828;BME280;22766;48.042;11.192;2023-05-23T06:12:42;94917.66;;;16.30;100.00
36828;BME280;22766;48.042;11.192;2023-05-23T06:15:11;94915.25;;;16.56;100.00
36828;BME280;22766;48.042;11.192;2023-05-23T06:17:40;94915.25;;;16.84;100.00
36828;BME280;22766;48.042;11.192;2023-05-23T06:20:08;94930.06;;;17.18;100.00
36828;BME280;22766;48.042;11.192;2023-05-23T06:22:37;94922.34;;;17.44;100.00
36828;BME280;22766;48.042;11.192;2023-05-23T06:25:05;94929.94;;;17.80;100.00
36828;BME280;22766;48.042;11.192;2023-05-23T06:27:32;94921.75;;;18.15;100.00
36828;BME280;22766;48.042;11.192;2023-05-23T06:30:02;94922.34;;;18.30;100.00
36828;BME280;22766;48.042;11.192;2023-05-23T06:32:28;94916.91;;;18.19;100.00
36828;BME280;22766;48.042;11.192;2023-05-23T06:34:56;94919.47;;;17.86;100.00
36828;BME280;22766;48.042;11.192;2023-05-23T06:37:23;94925.56;;;17.46;100.00
36828;BME280;22766;48.042;11.192;2023-05-23T06:39:50;94925.00;;;17.10;100.00
36828;BME280;22766;48.042;11.192;2023-05-23T06:42:17;94927.72;;;16.89;100.00
36828;BME280;22766;48.042;11.192;2023-05-23T06:45:00;94921.66;;;16.81;100.00
36828;BME280;22766;48.042;11.192;2023-05-23T06:47:27;94928.63;;;17.09;100.00
36828;BME280;22766;48.042;11.192;2023-05-23T06:49:53;94935.06;;;17.53;100.00
36828;BME280;22766;48.042;11.192;2023-05-23T06:52:20;94930.13;;;17.85;100.00
36828;BME280;22766;48.042;11.192;2023-05-23T06:54:47;94937.81;;;18.06;100.00
36828;BME280;22766;48.042;11.192;2023-05-23T06:57:14;94930.19;;;18.17;100.00
36828;BME280;22766;48.042;11.192;2023-05-23T06:59:41;94933.22;;;18.47;100.00
36828;BME280;22766;48.042;11.192;2023-05-23T07:02:09;94930.97;;;18.83;100.00
36828;BME280;22766;48.042;11.192;2023-05-23T07:04:36;94935.66;;;18.61;100.00
36828;BME280;22766;48.042;11.192;2023-05-23T07:07:09;94932.81;;;18.63;100.00
36828;BME280;22766;48.042;11.192;2023-05-23T07:09:36;94938.63;;;18.32;100.00
36828;BME280;22766;48.042;11.192;2023-05-23T07:12:11;94938.84;;;18.31;100.00
36828;BME280;22766;48.042;11.192;2023-05-23T07:14:40;94948.84;;;18.14;100.00
36828;BME280;22766;48.042;11.192;2023-05-23T07:17:08;94946.22;;;17.95;100.00
36828;BME280;22766;48.042;11.192;2023-05-23T07:19:37;94952.44;;;17.87;100.00
36828;BME280;22766;48.042;11.192;2023-05-23T07:22:04;94956.22;;;17.78;100.00
36828;BME280;22766;48.042;11.192;2023-05-23T07:24:33;94955.03;;;17.81;100.00
36828;BME280;22766;48.042;11.192;2023-05-23T07:27:00;94952.34;;;17.61;100.00
36828;BME280;22766;48.042;11.192;2023-05-23T07:29:28;94952.00;;;17.77;100.00
36828;BME280;22766;48.042;11.192;2023-05-23T07:31:55;94956.91;;;18.06;100.00
36828;BME280;22766;48.042;11.192;2023-05-23T07:34:22;94954.63;;;17.77;100.00
36828;BME280;22766;48.042;11.192;2023-05-23T07:36:53;94959.97;;;17.49;100.00
36828;BME280;22766;48.042;11.192;2023-05-23T07:39:21;94954.94;;;17.54;100.00
36828;BME280;22766;48.042;11.192;2023-05-23T07:41:51;94956.66;;;17.41;100.00
36828;BME280;22766;48.042;11.192;2023-05-23T07:44:18;94957.97;;;17.58;100.00
36828;BME280;22766;48.042;11.192;2023-05-23T07:46:50;94959.28;;;17.41;100.00
36828;BME280;22766;48.042;11.192;2023-05-23T07:49:17;94962.19;;;17.52;100.00
36828;BME280;22766;48.042;11.192;2023-05-23T07:51:44;94963.13;;;17.45;100.00
36828;BME280;22766;48.042;11.192;2023-05-23T07:54:11;94963.19;;;17.58;100.00
36828;BME280;22766;48.042;11.192;2023-05-23T07:56:43;94962.78;;;17.54;100.00
36828;BME280;22766;48.042;11.192;2023-05-23T07:59:11;94966.63;;;17.58;100.00
36828;BME280;22766;48.042;11.192;2023-05-23T08:01:40;94960.38;;;17.53;100.00
36828;BME280;22766;48.042;11.192;2023-05-23T08:04:11;94959.38;;;17.20;100.00
36828;BME280;22766;48.042;11.192;2023-05-23T08:06:52;94963.69;;;17.34;100.00
36828;BME280;22766;48.042;11.192;2023-05-23T08:09:47;94964.22;;;17.23;100.00
36828;BME280;22766;48.042;11.192;2023-05-23T08:12:17;94961.63;;;17.23;100.00
36828;BME280;22766;48.042;11.192;2023-05-23T08:14:45;94963.06;;;17.32;100.00
36828;BME280;22766;48.042;11.192;2023-05-23T08:17:21;94967.22;;;17.20;100.00
36828;BME280;22766;48.042;11.192;2023-05-23T08:19:48;94965.50;;;17.40;100.00
36828;BME280;22766;48.042;11.192;2023-05-23T08:22:15;94960.38;;;17.53;100.00
36828;BME280;22766;48.042;11.192;2023-05-23T08:24:41;94968.91;;;17.88;100.00
36828;BME280;22766;48.042;11.192;2023-05-23T08:27:09;94973.19;;;18.08;100.00
36828;BME280;22766;48.042;11.192;2023-05-23T08:29:37;94977.00;;;18.12;100.00
36828;BME280;22766;48.042;11.192;2023-05-23T08:32:04;94981.84;;;18.28;100.00
36828;BME280;22766;48.042;11.192;2023-05-23T08:34:32;94973.81;;;18.89;100.00
36828;BME280;22766;48.042;11.192;2023-05-23T08:36:59;94969.56;;;19.14;100.00
36828;BME280;22766;48.042;11.192;2023-05-23T08:39:26;94976.16;;;19.29;100.00
36828;BME280;22766;48.042;11.192;2023-05-23T08:42:07;94978.13;;;19.53;100.00
36828;BME280;22766;48.042;11.192;2023-05-23T08:44:33;94969.00;;;19.69;100.00
36828;BME280;22766;48.042;11.192;2023-05-23T08:47:02;94979.22;;;19.84;100.00
36828;BME280;22766;48.042;11.192;2023-05-23T08:49:44;94984.66;;;19.89;100.00
36828;BME280;22766;48.042;11.192;2023-05-23T08:52:12;94986.75;;;19.67;100.00
36828;BME280;22766;48.042;11.192;2023-05-23T08:54:45;94989.25;;;19.36;100.00
36828;BME280;22766;48.042;11.192;2023-05-23T08:57:13;94980.25;;;19.12;100.00
36828;BME280;22766;48.042;11.192;2023-05-23T08:59:45;94979.00;;;19.21;100.00
36828;BME280;22766;48.042;11.192;2023-05-23T09:02:13;94980.25;;;19.12;100.00
36828;BME280;22766;48.042;11.192;2023-05-23T09:04:41;94982.22;;;19.43;100.00
36828;BME280;22766;48.042;11.192;2023-05-23T09:07:14;94979.44;;;19.76;100.00
36828;BME280;22766;48.042;11.192;2023-05-23T09:09:43;94988.50;;;20.24;100.00
36828;BME280;22766;48.042;11.192;2023-05-23T09:12:13;94983.53;;;20.40;100.00
36828;BME280;22766;48.042;11.192;2023-05-23T09:14:43;94983.44;;;20.78;100.00
36828;BME280;22766;48.042;11.192;2023-05-23T09:17:16;94981.72;;;20.41;100.00
36828;BME280;22766;48.042;11.192;2023-05-23T09:19:44;94981.75;;;20.66;100.00
36828;BME280;22766;48.042;11.192;2023-05-23T09:22:36;94978.84;;;20.74;100.00
36828;BME280;22766;48.042;11.192;2023-05-23T09:25:10;94981.81;;;20.84;100.00
36828;BME280;22766;48.042;11.192;2023-05-23T09:27:39;94975.31;;;21.11;100.00
36828;BME280;22766;48.042;11.192;2023-05-23T09:30:07;94980.88;;;21.21;100.00
36828;BME280;22766;48.042;11.192;2023-05-23T09:32:34;94977.50;;;21.68;100.00
36828;BME280;22766;48.042;11.192;2023-05-23T09:35:04;94977.38;;;22.41;100.00
36828;BME280;22766;48.042;11.192;2023-05-23T09:37:33;94975.34;;;22.54;100.00
36828;BME280;22766;48.042;11.192;2023-05-23T09:40:07;94980.22;;;22.39;100.00
36828;BME280;22766;48.042;11.192;2023-05-23T09:42:43;94982.47;;;22.24;100.00
36828;BME280;22766;48.042;11.192;2023-05-23T09:45:11;94980.22;;;21.80;100.00
36828;BME280;22766;48.042;11.192;2023-05-23T09:47:38;94981.31;;;21.36;100.00
36828;BME280;22766;48.042;11.192;2023-05-23T09:50:05;94984.56;;;21.13;100.00
36828;BME280;22766;48.042;11.192;2023-05-23T09:52:37;94988.44;;;21.11;100.00
36828;BME280;22766;48.042;11.192;2023-05-23T09:55:07;94984.09;;;20.98;100.00
36828;BME280;22766;48.042;11.192;2023-05-23T09:57:38;94976.97;;;20.81;100.00
36828;BME280;22766;48.042;11.192;2023-05-23T10:00:08;94970.31;;;20.78;100.00
36828;BME280;22766;48.042;11.192;2023-05-23T10:08:07;94977.31;;;20.04;100.00
36828;BME280;22766;48.042;11.192;2023-05-23T10:13:27;94982.94;;;20.07;100.00
36828;BME280;22766;48.042;11.192;2023-05-23T10:15:58;94976.34;;;19.92;100.00
36828;BME280;22766;48.042;11.192;2023-05-23T10:18:28;94977.34;;;19.91;100.00
36828;BME280;22766;48.042;11.192;2023-05-23T10:20:59;94979.47;;;19.69;100.00
36828;BME280;22766;48.042;11.192;2023-05-23T10:23:30;94978.41;;;19.39;100.00
36828;BME280;22766;48.042;11.192;2023-05-23T10:25:57;94975.16;;;19.30;100.00
36828;BME280;22766;48.042;11.192;2023-05-23T10:28:23;94972.94;;;19.40;100.00
36828;BME280;22766;48.042;11.192;2023-05-23T10:30:50;94973.78;;;19.79;100.00
36828;BME280;22766;48.042;11.192;2023-05-23T10:33:17;94973.63;;;20.42;100.00
36828;BME280;22766;48.042;11.192;2023-05-23T10:38:42;94968.34;;;20.49;100.00
36828;BME280;22766;48.042;11.192;2023-05-23T10:41:43;94974.94;;;20.58;100.00
36828;BME280;22766;48.042;11.192;2023-05-23T10:44:26;94970.25;;;20.35;100.00
36828;BME280;22766;48.042;11.192;2023-05-23T10:46:55;94965.19;;;20.40;100.00
36828;BME280;22766;48.042;11.192;2023-05-23T10:52:05;94970.31;;;20.54;100.00
36828;BME280;22766;48.042;11.192;2023-05-23T10:54:41;94973.16;;;20.52;100.00
36828;BME280;22766;48.042;11.192;2023-05-23T10:57:09;94980.06;;;20.96;100.00
36828;BME280;22766;48.042;11.192;2023-05-23T10:59:37;94973.63;;;21.53;100.00
36828;BME280;22766;48.042;11.192;2023-05-23T11:02:12;94979.41;;;21.43;100.00
36828;BME280;22766;48.042;11.192;2023-05-23T11:04:43;94971.97;;;21.40;100.00
36828;BME280;22766;48.042;11.192;2023-05-23T11:07:31;94970.09;;;21.29;100.00
36828;BME280;22766;48.042;11.192;2023-05-23T11:12:38;94976.63;;;21.74;100.00
36828;BME280;22766;48.042;11.192;2023-05-23T11:15:25;94972.13;;;22.11;100.00
36828;BME280;22766;48.042;11.192;2023-05-23T11:17:56;94973.84;;;21.87;100.00
36828;BME280;22766;48.042;11.192;2023-05-23T11:20:23;94976.09;;;22.32;100.00
36828;BME280;22766;48.042;11.192;2023-05-23T11:25:38;94957.09;;;23.29;100.00
36828;BME280;22766;48.042;11.192;2023-05-23T11:28:06;94950.09;;;23.46;100.00
36828;BME280;22766;48.042;11.192;2023-05-23T11:30:34;94942.78;;;23.25;100.00
36828;BME280;22766;48.042;11.192;2023-05-23T11:33:06;94941.56;;;23.67;100.00
36828;BME280;22766;48.042;11.192;2023-05-23T11:35:35;94938.94;;;23.95;100.00
36828;BME280;22766;48.042;11.192;2023-05-23T11:38:03;94938.47;;;23.70;100.00
36828;BME280;22766;48.042;11.192;2023-05-23T11:40:41;94939.72;;;24.07;100.00
36828;BME280;22766;48.042;11.192;2023-05-23T11:43:10;94931.94;;;24.00;99.85
36828;BME280;22766;48.042;11.192;2023-05-23T11:45:38;94928.25;;;24.30;100.00
36828;BME280;22766;48.042;11.192;2023-05-23T11:48:13;94923.63;;;24.70;100.00
36828;BME280;22766;48.042;11.192;2023-05-23T11:50:44;94924.19;;;24.88;98.03
36828;BME280;22766;48.042;11.192;2023-05-23T11:53:11;94920.91;;;24.65;85.62
36828;BME280;22766;48.042;11.192;2023-05-23T11:55:47;94924.53;;;24.92;85.63
36828;BME280;22766;48.042;11.192;2023-05-23T11:58:15;94920.81;;;25.69;84.88
36828;BME280;22766;48.042;11.192;2023-05-23T12:00:43;94922.38;;;26.40;81.13
36828;BME280;22766;48.042;11.192;2023-05-23T12:03:10;94918.78;;;26.88;77.47
36828;BME280;22766;48.042;11.192;2023-05-23T12:05:38;94910.00;;;27.76;71.38
36828;BME280;22766;48.042;11.192;2023-05-23T12:08:04;94913.91;;;27.53;68.92
36828;BME280;22766;48.042;11.192;2023-05-23T12:10:31;94923.72;;;26.43;76.53
36828;BME280;22766;48.042;11.192;2023-05-23T12:12:58;94916.84;;;25.45;77.43
36828;BME280;22766;48.042;11.192;2023-05-23T12:15:25;94912.13;;;24.59;81.54
36828;BME280;22766;48.042;11.192;2023-05-23T12:17:55;94921.34;;;23.84;81.39
36828;BME280;22766;48.042;11.192;2023-05-23T12:20:23;94926.38;;;23.46;82.83
36828;BME280;22766;48.042;11.192;2023-05-23T12:22:53;94931.69;;;22.99;86.60
36828;BME280;22766;48.042;11.192;2023-05-23T12:25:19;94927.09;;;22.83;91.14
36828;BME280;22766;48.042;11.192;2023-05-23T12:27:48;94931.09;;;22.97;90.11
36828;BME280;22766;48.042;11.192;2023-05-23T12:30:16;94938.44;;;23.18;88.50
36828;BME280;22766;48.042;11.192;2023-05-23T12:32:44;94936.13;;;22.99;87.66
36828;BME280;22766;48.042;11.192;2023-05-23T12:35:13;94932.72;;;22.34;93.26
36828;BME280;22766;48.042;11.192;2023-05-23T12:37:43;94935.59;;;21.91;94.41
36828;BME280;22766;48.042;11.192;2023-05-23T12:40:15;94938.69;;;22.00;94.72
36828;BME280;22766;48.042;11.192;2023-05-23T12:42:49;94934.75;;;21.61;96.40
36828;BME280;22766;48.042;11.192;2023-05-23T12:45:19;94936.47;;;21.85;100.00
36828;BME280;22766;48.042;11.192;2023-05-23T12:47:46;94941.19;;;21.95;98.05
36828;BME280;22766;48.042;11.192;2023-05-23T12:50:13;94939.91;;;22.15;97.78
36828;BME280;22766;48.042;11.192;2023-05-23T12:52:40;94940.16;;;22.78;95.83
36828;BME280;22766;48.042;11.192;2023-05-23T12:55:07;94941.06;;;23.42;84.29
36828;BME280;22766;48.042;11.192;2023-05-23T12:57:34;94931.69;;;24.47;78.46
36828;BME280;22766;48.042;11.192;2023-05-23T13:00:01;94929.94;;;24.36;78.03
36828;BME280;22766;48.042;11.192;2023-05-23T13:02:28;94932.13;;;24.55;84.25
36828;BME280;22766;48.042;11.192;2023-05-23T13:04:54;94933.13;;;25.21;76.11
36828;BME280;22766;48.042;11.192;2023-05-23T13:07:21;94940.41;;;24.64;73.72
36828;BME280;22766;48.042;11.192;2023-05-23T13:09:48;94939.22;;;24.38;78.56
36828;BME280;22766;48.042;11.192;2023-05-23T13:12:15;94944.78;;;23.97;83.73
36828;BME280;22766;48.042;11.192;2023-05-23T13:14:42;94941.25;;;23.91;80.17
36828;BME280;22766;48.042;11.192;2023-05-23T13:17:08;94943.47;;;23.43;83.08